createdAt,value
2023-01-25T00:01:06.525Z,34.40
2023-01-25T00:03:35.245Z,28.80
2023-01-25T00:06:03.489Z,30.40
2023-01-25T00:08:32.254Z,30.60
2023-01-25T00:11:00.349Z,32.30
2023-01-25T00:13:28.555Z,29.40
2023-01-25T00:16:03.747Z,29.80
2023-01-25T00:18:32.193Z,26.40
2023-01-25T00:21:00.746Z,28.80
2023-01-25T00:23:29.295Z,30.30
2023-01-25T00:25:58.835Z,28.70
2023-01-25T00:28:28.540Z,32.10
2023-01-25T00:31:00.976Z,29.90
2023-01-25T00:33:33.310Z,28.40
2023-01-25T00:36:01.470Z,33.30
2023-01-25T00:38:36.025Z,30.00
2023-01-25T00:41:04.220Z,28.40
2023-01-25T00:43:32.856Z,38.30
2023-01-25T00:46:01.583Z,34.90
2023-01-25T00:48:32.195Z,36.70
2023-01-25T00:51:01.940Z,28.70
2023-01-25T00:53:30.262Z,32.60
2023-01-25T00:55:58.964Z,28.20
2023-01-25T00:58:27.148Z,31.10
2023-01-25T01:00:56.289Z,31.40
2023-01-25T01:03:25.063Z,30.30
2023-01-25T01:06:05.968Z,28.20
2023-01-25T01:08:36.890Z,27.80
2023-01-25T01:11:05.911Z,28.40
2023-01-25T01:13:34.421Z,26.90
2023-01-25T01:16:02.986Z,30.80
2023-01-25T01:18:34.926Z,30.50
2023-01-25T01:21:03.546Z,31.50
2023-01-25T01:23:32.864Z,29.00
2023-01-25T01:26:05.224Z,31.30
2023-01-25T01:28:34.842Z,37.90
2023-01-25T01:31:03.596Z,31.90
2023-01-25T01:33:35.376Z,28.20
2023-01-25T01:36:12.041Z,29.10
2023-01-25T01:38:40.654Z,30.30
2023-01-25T01:41:08.839Z,29.50
2023-01-25T01:43:37.820Z,32.50
2023-01-25T01:46:14.614Z,31.10
2023-01-25T01:48:48.157Z,34.50
2023-01-25T01:51:36.416Z,28.40
2023-01-25T01:54:28.824Z,31.30
2023-01-25T01:56:59.264Z,30.40
2023-01-25T01:59:33.010Z,31.60
2023-01-25T02:02:01.528Z,32.20
2023-01-25T02:04:30.700Z,28.10
2023-01-25T02:07:00.617Z,27.20
2023-01-25T02:09:29.927Z,33.50
2023-01-25T02:11:58.658Z,32.20
2023-01-25T02:14:28.221Z,29.20
2023-01-25T02:16:57.421Z,25.80
2023-01-25T02:19:41.688Z,29.20
2023-01-25T02:24:38.789Z,30.40
2023-01-25T02:27:08.134Z,28.90
2023-01-25T02:29:36.245Z,26.70
2023-01-25T02:32:04.736Z,27.50
2023-01-25T02:34:33.538Z,29.80
2023-01-25T02:37:01.745Z,32.20
2023-01-25T02:39:31.019Z,32.30
2023-01-25T02:41:59.625Z,32.30
2023-01-25T02:44:28.367Z,35.30
2023-01-25T02:46:57.382Z,30.60
2023-01-25T02:49:25.833Z,28.70
2023-01-25T02:52:00.465Z,27.20
2023-01-25T02:54:29.175Z,28.40
2023-01-25T02:56:57.617Z,25.90
2023-01-25T02:59:27.029Z,25.10
2023-01-25T03:01:57.424Z,24.90
2023-01-25T03:04:25.694Z,27.00
2023-01-25T03:06:54.129Z,23.80
2023-01-25T03:09:22.407Z,27.80
2023-01-25T03:11:52.349Z,24.30
2023-01-25T03:14:22.431Z,24.10
2023-01-25T03:16:50.952Z,28.00
2023-01-25T03:19:21.313Z,27.80
2023-01-25T03:21:49.961Z,31.50
2023-01-25T03:24:18.985Z,28.20
2023-01-25T03:27:08.422Z,28.60
2023-01-25T03:29:48.714Z,28.60
2023-01-25T03:32:21.008Z,25.60
2023-01-25T03:34:50.316Z,23.90
2023-01-25T03:37:19.492Z,23.50
2023-01-25T03:39:49.503Z,24.20
2023-01-25T03:42:20.626Z,24.40
2023-01-25T03:44:50.437Z,26.00
2023-01-25T03:47:19.276Z,28.10
2023-01-25T03:49:50.071Z,27.90
2023-01-25T03:52:20.685Z,22.80
2023-01-25T03:54:48.954Z,25.80
2023-01-25T03:57:19.377Z,23.80
2023-01-25T03:59:54.080Z,23.50
2023-01-25T04:02:22.322Z,27.40
2023-01-25T04:04:50.637Z,21.30
2023-01-25T04:07:20.473Z,39.30
2023-01-25T04:09:52.232Z,29.00
2023-01-25T04:12:20.834Z,28.40
2023-01-25T04:14:49.687Z,25.10
2023-01-25T04:17:23.301Z,19.90
2023-01-25T04:19:59.127Z,24.60
2023-01-25T04:22:31.611Z,23.90
2023-01-25T04:24:59.900Z,27.00
2023-01-25T04:27:29.322Z,22.00
2023-01-25T04:30:16.939Z,24.00
2023-01-25T04:32:46.357Z,24.40
2023-01-25T04:35:24.766Z,23.20
2023-01-25T04:37:54.900Z,24.80
2023-01-25T04:40:25.650Z,20.90
2023-01-25T04:42:54.074Z,26.20
2023-01-25T04:45:23.110Z,23.60
2023-01-25T04:48:02.183Z,23.80
2023-01-25T04:50:31.078Z,25.40
2023-01-25T04:53:00.144Z,20.50
2023-01-25T04:55:30.591Z,23.70
2023-01-25T04:58:00.606Z,24.10
2023-01-25T05:00:29.888Z,25.50
2023-01-25T05:04:50.848Z,26.60
2023-01-25T05:07:19.901Z,26.60
2023-01-25T05:09:49.019Z,22.00
2023-01-25T05:12:17.398Z,24.30
2023-01-25T05:14:53.473Z,30.10
2023-01-25T05:17:22.018Z,31.00
2023-01-25T05:19:50.331Z,30.10
2023-01-25T05:22:21.463Z,24.50
2023-01-25T05:24:53.294Z,24.10
2023-01-25T05:27:21.853Z,22.70
2023-01-25T05:33:13.382Z,25.10
2023-01-25T05:35:44.154Z,29.80
2023-01-25T05:38:12.791Z,28.50
2023-01-25T05:40:42.207Z,33.10
2023-01-25T05:43:10.407Z,26.00
2023-01-25T05:45:40.761Z,37.30
2023-01-25T05:48:09.265Z,30.50
2023-01-25T05:50:37.592Z,28.50
2023-01-25T05:53:09.607Z,29.70
2023-01-25T05:55:39.042Z,26.10
2023-01-25T05:58:16.543Z,29.40
2023-01-25T06:00:44.875Z,29.90
2023-01-25T06:03:16.486Z,29.50
2023-01-25T06:05:45.227Z,29.90
2023-01-25T06:08:13.983Z,35.10
2023-01-25T06:10:51.791Z,29.50
2023-01-25T06:13:29.267Z,32.50
2023-01-25T06:15:57.969Z,29.40
2023-01-25T06:18:58.309Z,32.60
2023-01-25T06:21:42.951Z,32.70
2023-01-25T06:24:11.169Z,27.10
2023-01-25T06:26:39.803Z,30.00
2023-01-25T06:29:09.264Z,27.80
2023-01-25T06:31:37.604Z,26.60
2023-01-25T06:34:08.387Z,32.20
2023-01-25T06:36:37.134Z,24.60
2023-01-25T06:39:05.310Z,31.90
2023-01-25T06:41:33.514Z,27.30
2023-01-25T06:44:02.008Z,27.90
2023-01-25T06:46:31.904Z,29.30
2023-01-25T06:49:03.445Z,33.60
2023-01-25T06:51:31.728Z,32.30
2023-01-25T06:54:02.173Z,35.50
2023-01-25T06:56:33.076Z,29.60
2023-01-25T06:59:01.602Z,29.40
2023-01-25T07:01:30.492Z,28.20
2023-01-25T07:03:59.611Z,29.30
2023-01-25T07:06:31.445Z,35.40
2023-01-25T07:09:09.090Z,102.00
2023-01-25T07:11:37.445Z,57.30
2023-01-25T07:14:05.977Z,96.70
2023-01-25T07:16:37.357Z,278.00
2023-01-25T07:19:08.067Z,129.40
2023-01-25T07:21:37.131Z,390.10
2023-01-25T07:24:05.772Z,98.90
2023-01-25T07:26:34.175Z,111.00
2023-01-25T07:29:03.003Z,125.50
2023-01-25T07:31:31.544Z,56.40
2023-01-25T07:33:59.712Z,30.70
2023-01-25T07:36:27.899Z,23.90
2023-01-25T07:38:57.722Z,23.30
2023-01-25T07:41:26.082Z,23.80
2023-01-25T07:43:57.742Z,78.70
2023-01-25T07:46:53.072Z,31.90
2023-01-25T07:49:21.784Z,22.50
2023-01-25T07:51:52.498Z,27.70
2023-01-25T07:54:20.981Z,28.00
2023-01-25T07:56:49.768Z,24.70
2023-01-25T07:59:20.357Z,77.30
2023-01-25T08:01:48.547Z,26.30
2023-01-25T08:04:20.564Z,26.60
2023-01-25T08:06:49.927Z,40.80
2023-01-25T08:09:21.846Z,23.80
2023-01-25T08:11:50.357Z,24.30
2023-01-25T08:14:18.723Z,19.50
2023-01-25T08:16:47.086Z,20.60
2023-01-25T08:19:24.273Z,22.30
2023-01-25T08:21:55.456Z,24.00
2023-01-25T08:24:28.315Z,18.10
2023-01-25T08:26:57.053Z,88.80
2023-01-25T08:29:28.018Z,21.30
2023-01-25T08:31:56.192Z,19.70
2023-01-25T08:34:27.126Z,18.00
2023-01-25T08:36:55.872Z,20.60
2023-01-25T08:39:24.572Z,18.60
2023-01-25T08:41:52.941Z,19.50
2023-01-25T08:44:24.139Z,21.30
2023-01-25T08:46:52.244Z,20.60
2023-01-25T08:49:20.404Z,20.00
2023-01-25T08:51:50.393Z,27.20
2023-01-25T08:54:18.454Z,17.70
2023-01-25T08:56:46.935Z,16.10
2023-01-25T08:59:15.140Z,53.20
2023-01-25T09:01:43.518Z,19.20
2023-01-25T09:04:11.652Z,18.00
2023-01-25T09:06:40.309Z,18.00
2023-01-25T09:09:08.735Z,17.40
2023-01-25T09:11:40.988Z,17.50
2023-01-25T09:14:10.595Z,16.90
2023-01-25T09:16:38.807Z,16.40
2023-01-25T09:19:07.273Z,17.50
2023-01-25T09:21:35.987Z,17.80
2023-01-25T09:24:06.967Z,25.90
2023-01-25T09:26:36.952Z,18.80
2023-01-25T09:29:10.215Z,18.80
2023-01-25T09:31:46.814Z,18.80
2023-01-25T09:34:23.966Z,17.70
2023-01-25T09:36:56.212Z,19.10
2023-01-25T09:39:24.460Z,53.10
2023-01-25T09:42:00.830Z,18.00
2023-01-25T09:44:59.843Z,17.40
2023-01-25T09:47:34.584Z,15.40
2023-01-25T09:50:08.207Z,15.20
2023-01-25T09:52:57.566Z,18.80
2023-01-25T09:55:26.379Z,15.50
2023-01-25T09:57:56.870Z,16.20
2023-01-25T10:00:45.710Z,42.20
2023-01-25T10:03:32.620Z,17.80
2023-01-25T10:06:01.238Z,16.30
2023-01-25T10:08:32.475Z,14.60
2023-01-25T10:11:04.360Z,14.00
2023-01-25T10:13:32.696Z,17.50
2023-01-25T10:16:06.456Z,13.80
2023-01-25T10:18:39.263Z,17.60
2023-01-25T10:21:17.513Z,13.90
2023-01-25T10:24:06.182Z,18.30
2023-01-25T10:29:22.101Z,13.10
2023-01-25T10:31:53.458Z,13.50
2023-01-25T10:34:27.922Z,15.80
2023-01-25T10:36:57.453Z,11.80
2023-01-25T10:39:25.646Z,11.80
2023-01-25T10:41:58.553Z,13.30
2023-01-25T10:44:29.125Z,146.10
2023-01-25T10:47:12.718Z,15.80
2023-01-25T10:49:40.978Z,14.20
2023-01-25T10:52:16.777Z,13.50
2023-01-25T10:54:46.351Z,13.50
2023-01-25T10:57:15.485Z,14.70
2023-01-25T10:59:48.442Z,14.70
2023-01-25T11:02:35.558Z,13.80
2023-01-25T11:05:17.300Z,12.40
2023-01-25T11:07:46.575Z,10.70
2023-01-25T11:10:35.013Z,13.00
2023-01-25T11:13:15.845Z,13.60
2023-01-25T11:15:47.702Z,13.00
2023-01-25T11:18:18.712Z,16.40
2023-01-25T11:20:51.673Z,13.70
2023-01-25T11:23:36.172Z,12.80
2023-01-25T11:26:36.529Z,13.70
2023-01-25T11:29:11.064Z,12.60
2023-01-25T11:31:42.213Z,13.60
2023-01-25T11:34:11.420Z,12.40
2023-01-25T11:36:42.344Z,17.10
2023-01-25T11:39:29.809Z,13.10
2023-01-25T11:41:58.370Z,15.80
2023-01-25T11:44:39.164Z,15.40
2023-01-25T11:47:13.519Z,17.30
2023-01-25T11:49:56.174Z,14.70
2023-01-25T11:52:33.535Z,12.30
2023-01-25T11:55:03.899Z,12.00
2023-01-25T11:57:32.197Z,14.00
2023-01-25T12:00:21.053Z,12.50
2023-01-25T12:02:49.437Z,12.60
2023-01-25T12:05:22.181Z,12.30
2023-01-25T12:08:06.507Z,19.90
2023-01-25T12:10:56.002Z,15.10
2023-01-25T12:13:24.779Z,12.80
2023-01-25T12:16:02.135Z,11.10
2023-01-25T12:18:47.293Z,14.70
2023-01-25T12:21:26.344Z,14.40
2023-01-25T12:24:05.608Z,15.40
2023-01-25T12:26:35.682Z,16.80
2023-01-25T12:29:11.297Z,14.20
2023-01-25T12:31:53.149Z,9.80
2023-01-25T12:34:22.930Z,16.00
2023-01-25T12:36:51.185Z,16.20
2023-01-25T12:39:27.611Z,9.70
2023-01-25T12:42:03.001Z,11.40
2023-01-25T12:44:32.122Z,12.40
2023-01-25T12:47:14.981Z,13.80
2023-01-25T12:49:58.013Z,13.30
2023-01-25T12:52:33.369Z,22.20
2023-01-25T12:55:02.464Z,14.60
2023-01-25T12:57:50.482Z,15.70
2023-01-25T13:00:32.654Z,16.90
2023-01-25T13:03:19.983Z,9.00
2023-01-25T13:05:58.854Z,15.10
2023-01-25T13:08:41.613Z,12.00
2023-01-25T13:11:12.443Z,21.70
2023-01-25T13:13:42.262Z,11.40
2023-01-25T13:16:29.141Z,10.70
2023-01-25T13:18:57.826Z,13.00
2023-01-25T13:21:40.260Z,13.50
2023-01-25T13:24:14.745Z,11.90
2023-01-25T13:26:47.100Z,14.20
2023-01-25T13:29:27.643Z,16.80
2023-01-25T13:31:58.975Z,15.80
2023-01-25T13:34:37.249Z,13.00
2023-01-25T13:37:20.704Z,14.40
2023-01-25T13:39:52.879Z,13.50
2023-01-25T13:42:25.558Z,10.70
2023-01-25T13:44:56.310Z,14.00
2023-01-25T13:47:26.012Z,13.80
2023-01-25T13:49:55.746Z,10.80
2023-01-25T13:52:24.731Z,15.80
2023-01-25T13:54:57.471Z,9.20
2023-01-25T13:57:27.716Z,12.10
2023-01-25T14:00:10.128Z,9.80
2023-01-25T14:02:39.296Z,15.80
2023-01-25T14:05:18.202Z,15.20
2023-01-25T14:07:47.733Z,15.10
2023-01-25T14:10:23.505Z,18.10
2023-01-25T14:12:52.121Z,18.50
2023-01-25T14:15:30.514Z,15.30
2023-01-25T14:18:13.788Z,19.70
2023-01-25T14:20:42.452Z,27.40
2023-01-25T14:23:21.009Z,35.80
2023-01-25T14:25:49.751Z,30.40
2023-01-25T14:28:18.142Z,19.70
2023-01-25T14:30:50.698Z,24.00
2023-01-25T14:33:31.849Z,20.40
2023-01-25T14:36:16.352Z,18.10
2023-01-25T14:38:52.970Z,20.60
2023-01-25T14:41:23.216Z,19.60
2023-01-25T14:43:55.278Z,16.80
2023-01-25T14:46:24.985Z,17.70
2023-01-25T14:49:13.385Z,19.40
2023-01-25T14:51:51.735Z,17.90
2023-01-25T14:54:24.570Z,30.40
2023-01-25T14:56:53.818Z,22.10
2023-01-25T14:59:22.239Z,24.80
2023-01-25T15:01:51.439Z,22.00
2023-01-25T15:04:19.841Z,26.10
2023-01-25T15:06:48.789Z,43.10
2023-01-25T15:09:36.419Z,25.70
2023-01-25T15:12:06.636Z,26.40
2023-01-25T15:14:46.780Z,25.00
2023-01-25T15:17:35.239Z,31.90
2023-01-25T15:20:04.241Z,63.70
2023-01-25T15:22:32.663Z,94.10
2023-01-25T15:25:00.907Z,33.80
2023-01-25T15:27:30.111Z,66.60
2023-01-25T15:29:59.433Z,44.00
2023-01-25T15:32:27.623Z,43.00
2023-01-25T15:34:55.852Z,680.60
2023-01-25T15:37:25.096Z,84.10
2023-01-25T15:39:53.347Z,52.40
2023-01-25T15:42:22.135Z,45.70
2023-01-25T15:44:50.452Z,49.50
2023-01-25T15:47:18.803Z,54.50
2023-01-25T15:49:49.595Z,76.10
2023-01-25T15:52:17.713Z,76.00
2023-01-25T15:54:52.229Z,44.10
2023-01-25T15:57:29.327Z,42.20
2023-01-25T15:59:57.675Z,40.90
2023-01-25T16:02:26.594Z,37.70
2023-01-25T16:04:54.955Z,46.30
2023-01-25T16:07:24.344Z,36.00
2023-01-25T16:09:52.745Z,38.20
2023-01-25T16:12:22.491Z,56.30
2023-01-25T16:14:51.499Z,68.80
2023-01-25T16:17:20.435Z,142.60
2023-01-25T16:19:49.406Z,54.50
2023-01-25T16:22:17.934Z,49.90
2023-01-25T16:24:46.287Z,78.00
2023-01-25T16:27:20.695Z,47.80
2023-01-25T16:29:48.943Z,40.50
2023-01-25T16:32:17.132Z,56.20
2023-01-25T16:34:45.968Z,72.80
2023-01-25T16:37:14.986Z,92.60
2023-01-25T16:39:43.277Z,96.30
2023-01-25T16:42:11.939Z,70.80
2023-01-25T16:44:40.953Z,68.10
2023-01-25T16:47:10.006Z,70.70
2023-01-25T16:49:38.282Z,68.10
2023-01-25T16:52:06.579Z,62.70
2023-01-25T16:54:35.827Z,63.20
2023-01-25T16:57:15.081Z,60.20
2023-01-25T16:59:48.035Z,61.40
2023-01-25T17:02:16.521Z,65.60
2023-01-25T17:04:44.615Z,62.40
2023-01-25T17:07:13.900Z,70.50
2023-01-25T17:09:42.135Z,75.90
2023-01-25T17:12:12.332Z,78.40
2023-01-25T17:14:41.165Z,82.90
2023-01-25T17:17:10.237Z,102.30
2023-01-25T17:19:38.835Z,100.40
2023-01-25T17:23:40.738Z,101.50
2023-01-25T17:26:08.543Z,114.20
2023-01-25T17:28:36.709Z,114.70
2023-01-25T17:31:04.046Z,106.60
2023-01-25T17:33:31.765Z,111.30
2023-01-25T17:36:02.326Z,105.40
2023-01-25T17:38:29.896Z,102.50
2023-01-25T17:40:56.781Z,113.60
2023-01-25T17:43:23.621Z,111.20
2023-01-25T17:45:50.579Z,110.00
2023-01-25T17:48:17.441Z,114.00
2023-01-25T17:50:44.265Z,98.00
2023-01-25T17:53:11.227Z,95.00
2023-01-25T17:55:38.426Z,72.40
2023-01-25T17:58:05.275Z,93.30
2023-01-25T18:00:32.558Z,110.90
2023-01-25T18:02:59.304Z,98.70
2023-01-25T18:05:26.613Z,118.80
2023-01-25T18:07:54.235Z,95.60
2023-01-25T18:10:21.056Z,84.40
2023-01-25T18:13:03.359Z,87.80
2023-01-25T18:15:31.803Z,86.80
2023-01-25T18:18:00.092Z,100.80
2023-01-25T18:20:26.970Z,119.80
2023-01-25T18:22:53.863Z,111.40
2023-01-25T18:25:27.875Z,122.40
2023-01-25T18:27:59.731Z,117.30
2023-01-25T18:30:29.756Z,120.30
2023-01-25T18:32:56.501Z,129.50
2023-01-25T18:35:28.325Z,135.60
2023-01-25T18:37:55.918Z,142.70
2023-01-25T18:40:23.628Z,142.60
2023-01-25T18:42:52.253Z,155.50
2023-01-25T18:45:19.134Z,164.90
2023-01-25T18:47:46.327Z,152.40
2023-01-25T18:50:15.926Z,147.30
2023-01-25T18:52:43.744Z,111.70
2023-01-25T18:55:11.611Z,108.60
2023-01-25T18:57:39.069Z,132.60
2023-01-25T19:00:10.411Z,130.00
2023-01-25T19:02:37.512Z,139.30
2023-01-25T19:05:04.427Z,123.70
2023-01-25T19:07:31.545Z,121.70
2023-01-25T19:09:58.431Z,120.80
2023-01-25T19:12:25.255Z,119.60
2023-01-25T19:14:52.049Z,126.60
2023-01-25T19:17:18.887Z,124.20
2023-01-25T19:19:46.209Z,141.90
2023-01-25T19:22:13.184Z,120.40
2023-01-25T19:24:45.063Z,121.60
2023-01-25T19:27:12.599Z,116.90
2023-01-25T19:29:39.548Z,129.30
2023-01-25T19:32:06.591Z,157.60
2023-01-25T19:34:33.721Z,126.90
2023-01-25T19:37:00.624Z,134.30
2023-01-25T19:39:27.563Z,107.80
2023-01-25T19:41:54.606Z,107.60
2023-01-25T19:44:21.931Z,113.10
2023-01-25T19:46:48.826Z,113.30
2023-01-25T19:49:15.797Z,119.90
2023-01-25T19:51:44.934Z,108.80
2023-01-25T19:54:13.159Z,108.10
2023-01-25T19:56:42.980Z,101.80
2023-01-25T19:59:11.036Z,106.20
2023-01-25T20:01:43.130Z,107.10
2023-01-25T20:04:14.533Z,105.40
2023-01-25T20:06:41.413Z,95.70
2023-01-25T20:09:10.950Z,107.80
2023-01-25T20:11:39.653Z,105.50
2023-01-25T20:14:06.574Z,111.40
2023-01-25T20:16:33.764Z,109.10
2023-01-25T20:19:02.108Z,124.60
2023-01-25T20:21:28.996Z,116.30
2023-01-25T20:23:57.829Z,116.60
2023-01-25T20:26:25.607Z,118.90
2023-01-25T20:28:53.338Z,125.50
2023-01-25T20:31:27.363Z,124.10
2023-01-25T20:33:57.729Z,106.90
2023-01-25T20:36:25.448Z,115.90
2023-01-25T20:38:52.249Z,123.50
2023-01-25T20:41:19.871Z,111.10
2023-01-25T20:44:03.534Z,103.40
2023-01-25T20:46:34.188Z,98.00
2023-01-25T20:49:01.743Z,105.10
2023-01-25T20:51:29.021Z,108.30
2023-01-25T20:53:57.633Z,103.90
2023-01-25T20:56:24.414Z,107.60
2023-01-25T20:58:51.401Z,80.70
2023-01-25T21:01:21.682Z,91.00
2023-01-25T21:03:48.633Z,86.20
2023-01-25T21:06:15.624Z,102.40
2023-01-25T21:08:42.465Z,103.60
2023-01-25T21:11:10.747Z,101.00
2023-01-25T21:13:37.797Z,110.70
2023-01-25T21:16:11.792Z,109.70
2023-01-25T21:18:39.882Z,111.90
2023-01-25T21:21:10.731Z,116.70
2023-01-25T21:23:42.266Z,113.50
2023-01-25T21:26:10.147Z,121.00
2023-01-25T21:28:37.435Z,125.20
2023-01-25T21:31:15.580Z,130.00
2023-01-25T21:33:42.673Z,129.30
2023-01-25T21:36:14.293Z,130.90
2023-01-25T21:38:45.595Z,138.00
2023-01-25T21:41:13.491Z,137.10
2023-01-25T21:43:58.676Z,132.10
2023-01-25T21:46:26.128Z,135.00
2023-01-25T21:49:15.680Z,133.70
2023-01-25T21:51:49.696Z,119.90
2023-01-25T21:54:17.240Z,115.50
2023-01-25T21:56:45.465Z,118.40
2023-01-25T21:59:12.240Z,116.50
2023-01-25T22:01:39.116Z,120.90
2023-01-25T22:04:06.083Z,124.70
2023-01-25T22:06:35.715Z,130.10
2023-01-25T22:09:02.930Z,120.00
2023-01-25T22:11:29.814Z,130.00
2023-01-25T22:13:57.357Z,118.80
2023-01-25T22:16:25.059Z,117.50
2023-01-25T22:18:52.033Z,111.60
2023-01-25T22:21:19.535Z,120.50
2023-01-25T22:23:46.583Z,125.70
2023-01-25T22:26:16.935Z,110.00
2023-01-25T22:28:45.082Z,109.20
2023-01-25T22:31:12.739Z,102.40
2023-01-25T22:33:40.652Z,97.00
2023-01-25T22:36:07.953Z,102.10
2023-01-25T22:38:34.730Z,103.10
2023-01-25T22:41:04.771Z,104.00
2023-01-25T22:43:32.078Z,100.50
2023-01-25T22:46:01.714Z,94.00
2023-01-25T22:48:28.820Z,95.80
2023-01-25T22:51:03.114Z,102.50
2023-01-25T22:53:30.150Z,95.00
2023-01-25T22:56:03.771Z,100.50
2023-01-25T22:58:31.164Z,102.70
2023-01-25T23:00:58.017Z,90.20
2023-01-25T23:03:24.896Z,85.70
2023-01-25T23:05:59.195Z,78.90
2023-01-25T23:08:26.345Z,74.40
2023-01-25T23:10:58.125Z,79.20
2023-01-25T23:13:24.959Z,82.90
2023-01-25T23:15:51.823Z,71.00
2023-01-25T23:18:37.148Z,72.60
2023-01-25T23:21:04.190Z,75.30
2023-01-25T23:23:32.892Z,73.90
2023-01-25T23:26:01.536Z,76.60
2023-01-25T23:28:28.505Z,67.70
2023-01-25T23:31:13.831Z,75.10
2023-01-25T23:33:41.683Z,70.70
2023-01-25T23:36:13.723Z,67.70
2023-01-25T23:38:41.017Z,65.30
2023-01-25T23:41:07.808Z,63.40
2023-01-25T23:43:34.878Z,62.10
2023-01-25T23:46:01.784Z,68.20
2023-01-25T23:48:28.756Z,63.70
2023-01-25T23:50:57.390Z,59.10
2023-01-25T23:53:26.255Z,64.70
2023-01-25T23:55:57.382Z,64.80
2023-01-25T23:58:24.211Z,60.30
